Time;durP1;ratioP1;P1;durP2;ratioP2;P2;SDS_P1;SDS_P2;PMS_P1;PMS_P2;Temp;Humidity;BMP_temperature;BMP_pressure;BME280_temperature;BME280_humidity;BME280_pressure;Samples;Min_cycle;Max_cycle;Signal;HPM_P1;HPM_P2
2022/02/11 00:00:33;;;;;;;8.57;1.65;;;19.70;66.60;;;;;;5023700;28;96114;-41
2022/02/11 00:08:08;;;;;;;8.80;2.00;;;19.80;64.90;;;;;;5021928;28;95954;-40
2022/02/11 00:10:39;;;;;;;;;;;19.80;64.00;;;;;;5022922;28;96589;-41
2022/02/11 00:13:10;;;;;;;8.40;2.65;;;19.80;64.70;;;;;;5020071;28;96655;-40
2022/02/11 00:15:44;;;;;;;9.35;2.55;;;19.80;64.60;;;;;;5017639;27;95679;-43
2022/02/11 00:18:16;;;;;;;11.00;1.80;;;19.80;64.30;;;;;;5018732;28;96023;-41
2022/02/11 00:20:49;;;;;;;8.75;1.95;;;19.80;64.90;;;;;;5026399;28;96784;-41
2022/02/11 00:23:22;;;;;;;8.18;2.25;;;19.90;64.90;;;;;;5025535;28;95430;-41
2022/02/11 00:25:59;;;;;;;12.68;2.08;;;20.00;65.50;;;;;;5025623;28;95901;-43
2022/02/11 00:33:58;;;;;;;11.95;2.30;;;20.10;64.90;;;;;;5022640;28;95905;-42
2022/02/11 00:37:10;;;;;;;7.32;2.08;;;20.10;63.40;;;;;;5022909;28;97347;-44
2022/02/11 00:39:53;;;;;;;13.90;2.40;;;20.00;63.90;;;;;;5021518;27;96127;-40
2022/02/11 01:02:10;;;;;;;6.95;1.90;;;20.40;64.20;;;;;;5023891;27;96864;-43
2022/02/11 01:04:49;;;;;;;7.63;2.67;;;20.40;62.50;;;;;;5021169;28;96060;-41
2022/02/11 01:07:20;;;;;;;9.95;2.50;;;20.40;62.30;;;;;;5020723;27;96686;-44
2022/02/11 01:09:51;;;;;;;;;;;20.40;63.60;;;;;;5021827;28;96240;-41
2022/02/11 01:12:23;;;;;;;10.75;1.88;;;20.60;63.20;;;;;;5022273;28;97102;-42
2022/02/11 01:14:53;;;;;;;;;;;20.60;63.30;;;;;;5021081;28;95247;-43
2022/02/11 01:17:36;;;;;;;12.70;2.60;;;20.60;62.70;;;;;;5014078;27;95853;-41
2022/02/11 01:20:18;;;;;;;9.57;2.53;;;20.50;63.10;;;;;;5022915;28;96102;-41
2022/02/11 01:23:14;;;;;;;9.20;1.92;;;20.50;63.00;;;;;;5021662;28;96467;-42
2022/02/11 01:26:00;;;;;;;8.73;3.03;;;20.60;63.00;;;;;;5012364;28;96330;-42
2022/02/11 01:28:43;;;;;;;7.95;2.42;;;20.80;62.20;;;;;;5020124;28;95889;-41
2022/02/11 01:50:05;;;;;;;10.32;2.95;;;20.90;61.00;;;;;;5021169;28;96449;-42
2022/02/11 01:52:59;;;;;;;6.97;2.30;;;20.90;61.10;;;;;;5022742;27;96340;-43
2022/02/11 02:26:01;;;;;;;10.38;3.05;;;21.50;58.90;;;;;;5018028;27;95850;-43
2022/02/11 02:50:25;;;;;;;10.85;2.72;;;21.70;59.00;;;;;;5001691;28;96757;-44
2022/02/11 02:58:33;;;;;;;11.77;3.22;;;21.80;58.40;;;;;;5019954;27;96374;-43
2022/02/11 03:15:45;;;;;;;12.50;3.20;;;22.00;57.80;;;;;;5024438;28;96464;-43
2022/02/11 03:57:08;;;;;;;12.45;3.45;;;22.30;55.50;;;;;;5023701;27;95923;-43
2022/02/11 04:55:04;;;;;;;10.85;3.28;;;22.70;54.50;;;;;;5021804;28;96212;-42
2022/02/11 05:00:23;;;;;;;11.15;3.35;;;22.70;54.60;;;;;;5016214;27;95738;-42
2022/02/11 05:02:57;;;;;;;11.65;2.67;;;22.80;53.50;;;;;;5022419;28;96012;-43
2022/02/11 05:05:28;;;;;;;9.60;2.95;;;22.70;54.70;;;;;;4999194;28;98728;-42
2022/02/11 05:08:01;;;;;;;15.07;3.88;;;22.70;53.80;;;;;;5022000;28;95932;-42
2022/02/11 05:10:32;;;;;;;14.85;2.97;;;22.60;54.00;;;;;;4998598;28;95924;-43
2022/02/11 05:13:06;;;;;;;13.40;2.88;;;22.60;53.80;;;;;;5023037;27;97843;-41
2022/02/11 05:15:37;;;;;;;9.50;2.72;;;22.60;54.20;;;;;;5008460;27;96107;-41
2022/02/11 05:18:09;;;;;;;10.57;2.95;;;22.60;54.10;;;;;;5010105;28;102305;-42
2022/02/11 05:20:43;;;;;;;15.45;2.90;;;22.60;53.90;;;;;;5022900;28;95777;-41
2022/02/11 05:23:18;;;;;;;11.05;3.25;;;22.60;54.30;;;;;;5021197;27;96127;-42
2022/02/11 05:25:49;;;;;;;15.95;3.92;;;22.60;53.30;;;;;;5019908;28;97243;-43
2022/02/11 05:28:20;;;;;;;16.02;4.57;;;22.60;54.00;;;;;;5019328;28;95984;-42
2022/02/11 05:30:55;;;;;;;14.45;4.18;;;22.60;53.40;;;;;;5017898;28;95786;-41
2022/02/11 05:33:28;;;;;;;14.75;3.40;;;22.60;54.10;;;;;;5022311;27;95761;-40
2022/02/11 05:35:59;;;;;;;14.50;3.28;;;22.70;54.50;;;;;;5022420;27;96235;-42
2022/02/11 05:38:30;;;;;;;15.98;3.88;;;22.70;45.00;;;;;;5021984;27;95839;-42
2022/02/11 05:41:03;;;;;;;19.05;3.60;;;22.70;54.20;;;;;;5020027;28;95820;-41
2022/02/11 05:43:34;;;;;;;12.48;3.22;;;22.60;52.90;;;;;;5020000;28;96410;-41
2022/02/11 05:46:04;;;;;;;9.50;3.03;;;22.60;54.10;;;;;;5015747;28;97040;-41
2022/02/11 05:48:38;;;;;;;9.13;2.85;;;22.60;54.90;;;;;;5022608;28;96202;-41
2022/02/11 05:51:11;;;;;;;19.40;4.20;;;22.50;53.80;;;;;;5023033;28;95721;-42
2022/02/11 05:53:42;;;;;;;9.50;2.90;;;22.50;54.40;;;;;;5021539;28;95394;-40
2022/02/11 05:56:12;;;;;;;12.15;3.83;;;22.60;54.10;;;;;;5021444;28;96073;-40
2022/02/11 05:58:42;;;;;;;10.35;2.92;;;22.50;54.10;;;;;;5020327;28;96130;-41
2022/02/11 06:01:15;;;;;;;7.65;2.80;;;22.40;54.20;;;;;;5001134;28;98111;-40
2022/02/11 06:03:47;;;;;;;8.95;3.50;;;22.50;54.00;;;;;;5021695;28;95822;-42
2022/02/11 06:06:20;;;;;;;13.63;3.42;;;22.30;53.90;;;;;;5019970;27;97721;-42
2022/02/11 06:08:50;;;;;;;9.00;2.53;;;22.30;53.60;;;;;;5020323;27;97092;-40
2022/02/11 06:11:21;;;;;;;13.45;2.95;;;22.30;54.30;;;;;;5021557;27;95363;-41
2022/02/11 06:13:51;;;;;;;18.00;3.25;;;22.40;54.70;;;;;;5021309;27;95765;-41
2022/02/11 06:16:24;;;;;;;11.65;2.67;;;22.30;53.90;;;;;;5014697;28;95859;-41
2022/02/11 06:18:57;;;;;;;13.98;3.78;;;22.40;54.10;;;;;;5020598;28;95952;-42
2022/02/11 06:21:28;;;;;;;10.02;2.55;;;22.50;54.10;;;;;;5022394;28;97770;-40
2022/02/11 06:23:59;;;;;;;6.97;2.45;;;22.50;53.50;;;;;;5020525;27;96546;-42
2022/02/11 06:26:30;;;;;;;11.90;3.05;;;22.40;54.10;;;;;;5021050;28;96901;-42
2022/02/11 06:29:01;;;;;;;10.82;3.22;;;22.50;54.50;;;;;;5020762;27;96062;-40
2022/02/11 06:31:33;;;;;;;8.52;3.20;;;22.50;54.50;;;;;;5013750;27;95898;-41
2022/02/11 06:34:03;;;;;;;;;;;22.60;54.20;;;;;;5019851;27;95978;-43
2022/02/11 06:36:37;;;;;;;13.02;2.88;;;22.50;53.00;;;;;;5021405;28;96046;-41
2022/02/11 06:39:07;;;;;;;13.82;3.47;;;22.40;54.20;;;;;;5021222;27;95969;-42
2022/02/11 06:41:38;;;;;;;7.85;2.47;;;22.40;54.00;;;;;;5021289;27;96163;-41
2022/02/11 06:44:09;;;;;;;;;;;22.40;54.20;;;;;;5019629;28;95765;-42
2022/02/11 06:46:39;;;;;;;10.07;3.58;;;22.40;54.30;;;;;;5016480;28;99170;-43
2022/02/11 06:49:10;;;;;;;13.63;3.35;;;22.40;54.20;;;;;;5017444;28;96671;-41
2022/02/11 06:51:41;;;;;;;;;;;22.50;54.70;;;;;;5020015;28;95971;-43
2022/02/11 06:54:13;;;;;;;10.63;3.67;;;22.30;53.90;;;;;;5024660;28;95971;-43
2022/02/11 06:56:44;;;;;;;8.90;2.88;;;22.30;46.30;;;;;;5020008;27;96389;-42
2022/02/11 06:59:14;;;;;;;11.02;2.70;;;22.20;53.90;;;;;;5017980;27;96095;-44
2022/02/11 07:01:45;;;;;;;8.10;2.80;;;22.10;53.30;;;;;;5019085;28;97550;-40
2022/02/11 07:04:16;;;;;;;10.38;3.05;;;22.20;54.80;;;;;;5022979;28;95477;-43
2022/02/11 07:06:48;;;;;;;10.82;3.08;;;22.20;53.40;;;;;;5008503;28;97150;-43
2022/02/11 07:09:22;;;;;;;11.43;2.83;;;22.00;54.00;;;;;;5016544;28;95863;-49
2022/02/11 07:11:52;;;;;;;10.52;2.90;;;22.10;53.90;;;;;;5021081;27;95918;-44
2022/02/11 07:14:22;;;;;;;19.20;3.80;;;21.80;54.30;;;;;;5022491;28;96648;-44
2022/02/11 07:16:54;;;;;;;15.50;3.45;;;21.90;54.80;;;;;;5016456;27;96595;-44
2022/02/11 07:19:26;;;;;;;22.33;3.65;;;22.00;54.50;;;;;;5013075;28;96389;-44
2022/02/11 07:22:00;;;;;;;11.20;3.33;;;22.00;53.80;;;;;;5022474;27;96098;-44
2022/02/11 07:24:32;;;;;;;11.90;3.13;;;21.90;53.40;;;;;;5010449;28;96097;-44
2022/02/11 07:27:05;;;;;;;17.40;3.35;;;21.80;53.70;;;;;;5017290;27;96039;-44
2022/02/11 07:29:37;;;;;;;13.95;2.38;;;21.70;54.10;;;;;;5022572;28;95916;-44
2022/02/11 07:32:10;;;;;;;12.10;3.08;;;21.70;54.80;;;;;;5018763;27;96050;-44
2022/02/11 07:34:41;;;;;;;9.73;2.80;;;21.70;54.20;;;;;;5024008;27;95944;-47
2022/02/11 07:37:12;;;;;;;10.68;2.88;;;21.50;54.40;;;;;;5024736;28;97083;-45
2022/02/11 07:39:54;;;;;;;15.75;3.22;;;21.40;54.00;;;;;;5020719;28;96637;-43
2022/02/11 07:42:26;;;;;;;14.05;2.88;;;21.50;54.70;;;;;;5023611;28;95717;-49
2022/02/11 07:44:58;;;;;;;12.20;2.75;;;21.50;55.20;;;;;;5024752;27;95832;-44
2022/02/11 07:47:29;;;;;;;9.93;2.72;;;21.60;55.00;;;;;;5019055;27;96888;-43
2022/02/11 07:50:01;;;;;;;10.07;2.85;;;21.40;55.00;;;;;;5023277;28;96413;-43
2022/02/11 07:52:31;;;;;;;12.27;2.85;;;21.30;55.30;;;;;;5024555;28;95752;-43
2022/02/11 07:55:02;;;;;;;15.45;6.05;;;21.30;55.60;;;;;;5021345;28;96104;-43
2022/02/11 07:57:32;;;;;;;22.65;6.53;;;21.50;55.70;;;;;;5021989;28;96090;-43
2022/02/11 08:00:04;;;;;;;15.80;10.38;;;21.50;55.40;;;;;;5022801;28;96017;-43
2022/02/11 08:02:40;;;;;;;37.10;22.92;;;21.50;55.60;;;;;;5022671;27;96485;-43
2022/02/11 08:05:11;;;;;;;30.17;14.57;;;21.50;55.80;;;;;;5023324;28;96523;-43
2022/02/11 08:07:44;;;;;;;42.55;26.90;;;21.40;55.40;;;;;;5023606;28;96144;-44
2022/02/11 08:10:14;;;;;;;33.00;16.90;;;21.30;56.40;;;;;;5022253;28;96558;-43
2022/02/11 08:12:44;;;;;;;47.60;29.48;;;21.20;55.90;;;;;;5020522;28;95592;-43
2022/02/11 08:15:14;;;;;;;31.80;21.92;;;21.20;56.30;;;;;;5014767;27;95453;-43
2022/02/11 08:17:44;;;;;;;27.85;17.13;;;21.20;56.10;;;;;;5022922;28;96413;-43
2022/02/11 08:20:15;;;;;;;33.50;19.92;;;21.10;55.70;;;;;;5022424;28;95957;-43
2022/02/11 08:22:47;;;;;;;43.25;24.83;;;21.20;56.50;;;;;;5011189;28;95919;-41
2022/02/11 08:25:18;;;;;;;26.85;15.63;;;21.20;57.00;;;;;;5023853;27;96616;-41
2022/02/11 08:27:51;;;;;;;13.18;8.52;;;21.20;56.10;;;;;;5013527;28;96083;-41
2022/02/11 08:30:42;;;;;;;17.30;8.27;;;20.90;56.30;;;;;;5012165;28;96708;-43
2022/02/11 08:33:13;;;;;;;19.90;12.18;;;20.80;57.60;;;;;;5021210;27;95786;-41
2022/02/11 08:35:44;;;;;;;30.40;9.43;;;20.70;57.80;;;;;;5019459;27;96187;-40
2022/02/11 08:38:15;;;;;;;37.28;9.88;;;20.80;57.80;;;;;;5021023;27;96646;-40
2022/02/11 08:40:47;;;;;;;24.95;7.90;;;20.90;57.50;;;;;;5019574;28;95877;-40
2022/02/11 08:43:19;;;;;;;14.35;5.63;;;20.80;57.30;;;;;;5023788;28;95683;-41
2022/02/11 08:45:50;;;;;;;;;;;20.80;57.30;;;;;;5014370;28;95983;-40
2022/02/11 08:48:22;;;;;;;13.88;4.47;;;20.50;57.70;;;;;;5022799;28;96186;-40
2022/02/11 08:50:53;;;;;;;;;;;20.50;58.10;;;;;;5023592;27;96053;-40
2022/02/11 08:53:38;;;;;;;15.05;6.68;;;20.50;58.60;;;;;;5018708;28;95749;-40
2022/02/11 08:56:09;;;;;;;12.82;3.38;;;20.40;58.80;;;;;;5023572;28;95878;-40
2022/02/11 08:58:39;;;;;;;15.20;5.25;;;20.40;58.40;;;;;;5023281;27;96077;-40
2022/02/11 09:01:10;;;;;;;20.15;4.47;;;20.40;59.10;;;;;;5016464;28;96073;-41
2022/02/11 09:03:41;;;;;;;12.85;4.05;;;20.40;58.90;;;;;;5018260;28;96688;-41
2022/02/11 09:06:11;;;;;;;11.02;3.70;;;20.30;58.80;;;;;;5021817;28;95919;-40
2022/02/11 09:08:41;;;;;;;12.48;3.28;;;20.20;58.90;;;;;;5021251;28;96868;-40
2022/02/11 09:11:16;;;;;;;14.52;4.40;;;20.20;59.00;;;;;;5019873;27;96765;-40
2022/02/11 09:13:46;;;;;;;12.40;3.58;;;20.20;59.60;;;;;;5020884;28;95739;-40
2022/02/11 09:16:18;;;;;;;14.10;3.30;;;20.00;59.50;;;;;;5015995;28;95826;-40
2022/02/11 09:18:49;;;;;;;21.52;4.05;;;20.10;59.90;;;;;;4998150;28;96092;-40
2022/02/11 09:21:20;;;;;;;17.35;3.47;;;20.00;59.70;;;;;;5017312;27;95995;-40
2022/02/11 09:23:51;;;;;;;12.23;3.70;;;19.90;60.00;;;;;;5019684;28;96448;-40
2022/02/11 09:26:22;;;;;;;21.67;3.93;;;19.90;60.20;;;;;;5020101;27;96474;-40
2022/02/11 09:28:53;;;;;;;;;;;19.90;60.40;;;;;;5019771;28;96449;-40
2022/02/11 09:31:27;;;;;;;11.90;3.08;;;19.80;60.40;;;;;;5016984;28;96007;-40
2022/02/11 09:34:04;;;;;;;16.27;3.72;;;19.80;60.50;;;;;;5020550;28;96492;-40
2022/02/11 09:36:39;;;;;;;10.60;2.83;;;19.70;60.50;;;;;;5018288;28;95906;-40
2022/02/11 09:39:10;;;;;;;13.20;3.53;;;19.60;60.70;;;;;;5020067;28;96662;-40
2022/02/11 09:41:42;;;;;;;12.90;2.85;;;19.60;60.80;;;;;;5020731;28;97147;-40
2022/02/11 09:44:15;;;;;;;13.18;2.72;;;19.60;60.80;;;;;;5021206;28;95676;-40
2022/02/11 09:46:47;;;;;;;11.27;2.55;;;19.60;60.90;;;;;;5019668;27;95765;-40
2022/02/11 09:49:17;;;;;;;10.68;2.25;;;19.60;60.90;;;;;;5022396;28;96908;-39
2022/02/11 09:51:49;;;;;;;18.05;3.35;;;19.60;60.90;;;;;;5020632;28;95915;-39
2022/02/11 09:54:22;;;;;;;11.43;2.90;;;19.60;61.10;;;;;;5023035;28;95744;-39
2022/02/11 09:56:53;;;;;;;13.02;3.08;;;19.40;61.20;;;;;;5024082;27;95901;-39
2022/02/11 09:59:23;;;;;;;10.93;3.60;;;19.40;61.30;;;;;;5023851;28;96837;-40
2022/02/11 10:01:54;;;;;;;11.90;3.25;;;19.30;61.90;;;;;;5020493;28;95896;-39
2022/02/11 10:04:22;;;;;;;14.15;3.25;;;19.20;61.90;;;;;;5007235;28;95703;-39
2022/02/11 10:06:56;;;;;;;10.05;2.50;;;19.20;62.30;;;;;;5025110;27;95796;-39
2022/02/11 10:09:28;;;;;;;12.98;3.33;;;19.20;62.40;;;;;;5022118;28;98205;-39
2022/02/11 10:11:58;;;;;;;11.38;3.10;;;19.10;62.60;;;;;;5001545;28;95898;-40
2022/02/11 10:14:35;;;;;;;11.52;2.45;;;19.10;62.80;;;;;;5020108;28;95974;-39
2022/02/11 10:17:11;;;;;;;12.07;2.42;;;19.10;62.80;;;;;;5016656;28;95346;-39
2022/02/11 10:19:50;;;;;;;5.90;2.03;;;19.00;63.20;;;;;;5021739;27;96053;-39
2022/02/11 10:22:30;;;;;;;14.30;3.13;;;18.90;63.80;;;;;;5024734;28;95920;-39
2022/02/11 10:25:01;;;;;;;7.22;2.28;;;18.80;64.10;;;;;;5020804;28;95991;-39
2022/02/11 10:27:35;;;;;;;11.00;3.00;;;18.80;64.20;;;;;;5023332;28;95834;-39
2022/02/11 10:30:11;;;;;;;11.25;3.28;;;18.80;64.50;;;;;;5024209;28;97180;-39
2022/02/11 10:32:52;;;;;;;11.00;2.15;;;18.80;64.60;;;;;;5025218;27;95814;-39
2022/02/11 10:35:29;;;;;;;12.73;3.22;;;18.70;65.10;;;;;;5021784;27;95863;-39
2022/02/11 10:38:14;;;;;;;14.07;3.00;;;18.70;65.10;;;;;;5002077;28;95886;-39
2022/02/11 10:40:45;;;;;;;13.43;2.33;;;18.80;65.00;;;;;;5021431;28;96155;-42
2022/02/11 10:43:29;;;;;;;8.13;2.33;;;18.80;64.90;;;;;;5023908;28;99082;-41
2022/02/11 10:46:04;;;;;;;8.05;2.58;;;18.80;64.70;;;;;;5013301;28;95857;-41
2022/02/11 10:48:38;;;;;;;8.70;2.10;;;18.90;64.90;;;;;;5026264;28;95842;-42
2022/02/11 10:51:22;;;;;;;11.07;2.28;;;18.80;64.90;;;;;;5021544;27;96596;-41
2022/02/11 10:53:53;;;;;;;10.27;2.70;;;18.80;65.00;;;;;;5023179;28;95580;-41
2022/02/11 10:56:26;;;;;;;15.48;2.70;;;18.80;65.00;;;;;;5024433;28;95309;-41
2022/02/11 10:58:58;;;;;;;8.70;2.30;;;18.80;65.10;;;;;;5025395;27;97326;-42
2022/02/11 11:01:32;;;;;;;13.65;2.42;;;18.90;66.00;;;;;;5017490;28;96042;-41
2022/02/11 11:04:03;;;;;;;12.93;4.00;;;18.90;65.30;;;;;;5021168;28;96306;-41
2022/02/11 11:06:33;;;;;;;10.63;2.67;;;18.80;65.20;;;;;;5026811;28;97683;-41
2022/02/11 11:09:05;;;;;;;11.40;2.85;;;18.90;65.60;;;;;;5017446;28;95781;-42
2022/02/11 11:11:37;;;;;;;11.45;2.30;;;18.90;65.40;;;;;;5020090;27;96844;-40
2022/02/11 11:14:08;;;;;;;6.30;2.33;;;19.00;65.60;;;;;;5019314;27;95794;-40
2022/02/11 11:16:41;;;;;;;10.30;2.50;;;19.00;65.90;;;;;;5018460;28;95453;-40
2022/02/11 11:19:13;;;;;;;10.73;2.40;;;19.00;65.60;;;;;;5024780;28;96718;-41
2022/02/11 11:22:16;;;;;;;10.77;2.50;;;19.00;65.70;;;;;;5018436;28;97163;-41
2022/02/11 11:24:51;;;;;;;8.60;2.58;;;19.10;65.80;;;;;;5026349;28;95862;-42
2022/02/11 11:27:51;;;;;;;6.10;2.30;;;19.10;65.90;;;;;;5026974;28;95260;-42
2022/02/11 11:30:30;;;;;;;7.70;2.10;;;19.10;65.90;;;;;;5018512;27;96023;-46
2022/02/11 11:33:08;;;;;;;6.30;2.22;;;19.10;66.20;;;;;;5023332;28;102531;-42
2022/02/11 11:36:04;;;;;;;9.18;2.50;;;19.20;66.20;;;;;;5023046;27;96038;-46
2022/02/11 11:38:44;;;;;;;11.55;2.78;;;19.40;58.50;;;;;;5025889;27;95718;-45
2022/02/11 11:41:21;;;;;;;8.00;2.08;;;19.40;64.90;;;;;;5021988;28;95780;-45
2022/02/11 11:43:58;;;;;;;11.60;2.20;;;19.50;65.00;;;;;;5022835;28;95331;-50
2022/02/11 11:46:34;;;;;;;15.45;2.65;;;19.50;64.80;;;;;;5012988;28;96197;-45
2022/02/11 11:49:13;;;;;;;8.13;2.65;;;19.50;64.60;;;;;;5018209;28;95841;-45
2022/02/11 11:51:46;;;;;;;8.07;2.70;;;19.60;64.50;;;;;;5003230;28;97559;-45
2022/02/11 11:54:21;;;;;;;10.48;2.67;;;19.50;64.50;;;;;;5022688;28;96462;-45
2022/02/11 11:56:54;;;;;;;9.30;2.25;;;19.50;61.10;;;;;;5018238;27;95643;-45
2022/02/11 11:59:48;;;;;;;9.65;2.72;;;19.50;64.70;;;;;;5014372;28;95811;-46
2022/02/11 12:02:25;;;;;;;8.95;2.50;;;19.50;64.50;;;;;;5004797;27;95793;-45
2022/02/11 12:05:00;;;;;;;7.50;2.50;;;19.50;64.40;;;;;;5022996;28;96299;-45
2022/02/11 12:07:34;;;;;;;8.35;2.55;;;19.40;64.50;;;;;;5022074;28;96128;-45
2022/02/11 12:10:09;;;;;;;13.52;3.55;;;19.40;64.70;;;;;;5025945;27;95984;-45
2022/02/11 12:12:41;;;;;;;6.57;2.92;;;19.40;65.20;;;;;;5028979;27;95315;-45
2022/02/11 12:15:11;;;;;;;10.25;2.85;;;19.50;64.50;;;;;;5022314;28;96603;-43
2022/02/11 12:17:41;;;;;;;12.02;3.22;;;19.40;64.70;;;;;;5025730;28;96262;-43
2022/02/11 12:20:12;;;;;;;8.25;2.53;;;19.40;65.20;;;;;;5026373;28;96015;-44
2022/02/11 12:27:20;;;;;;;11.48;2.95;;;19.50;64.70;;;;;;5010698;28;98088;-44
2022/02/11 12:28:35;;;;;;;8.73;2.45;;;19.40;64.60;;;;;;5021474;28;96847;-43
2022/02/11 12:31:08;;;;;;;12.38;2.67;;;19.40;64.50;;;;;;5021584;27;97329;-43
2022/02/11 12:33:39;;;;;;;18.98;3.58;;;19.40;64.50;;;;;;5028156;27;95275;-44
2022/02/11 12:36:12;;;;;;;16.02;2.45;;;19.40;64.50;;;;;;5027050;27;96120;-43
2022/02/11 12:38:42;;;;;;;13.02;2.92;;;19.30;64.80;;;;;;5028226;27;96589;-50
2022/02/11 12:41:12;;;;;;;10.30;2.65;;;19.30;64.90;;;;;;5025597;28;95729;-43
2022/02/11 12:43:56;;;;;;;14.45;2.80;;;19.30;64.90;;;;;;5027314;28;95545;-46
2022/02/11 12:46:27;;;;;;;9.30;2.75;;;19.30;64.80;;;;;;5020035;28;96180;-45
2022/02/11 12:48:59;;;;;;;8.15;3.08;;;19.30;64.80;;;;;;5027905;27;95968;-45
2022/02/11 12:51:31;;;;;;;10.95;2.35;;;19.20;65.10;;;;;;5024006;28;97622;-45
2022/02/11 12:54:05;;;;;;;9.05;2.22;;;19.20;65.40;;;;;;5023161;27;95666;-45
2022/02/11 12:56:37;;;;;;;12.02;3.08;;;19.10;65.40;;;;;;5023597;28;96124;-45
2022/02/11 12:59:07;;;;;;;;;;;19.20;65.50;;;;;;5027318;27;97857;-45
2022/02/11 13:01:36;;;;;;;7.95;2.55;;;19.10;65.60;;;;;;5022475;28;95630;-43
2022/02/11 13:04:06;;;;;;;9.48;3.08;;;19.10;65.70;;;;;;5026578;28;95944;-43
2022/02/11 13:06:37;;;;;;;11.45;2.42;;;19.20;65.50;;;;;;5026873;28;96655;-43
2022/02/11 13:09:10;;;;;;;10.65;2.45;;;19.20;65.50;;;;;;5023504;28;96020;-43
2022/02/11 13:12:01;;;;;;;6.18;2.25;;;19.20;65.40;;;;;;5020976;28;95850;-43
2022/02/11 13:14:32;;;;;;;11.95;2.97;;;19.20;65.40;;;;;;5025212;28;95823;-43
2022/02/11 13:17:10;;;;;;;10.63;2.78;;;19.20;65.60;;;;;;5020181;28;96064;-42
2022/02/11 13:19:42;;;;;;;9.30;2.30;;;19.10;66.10;;;;;;5026918;28;96126;-45
2022/02/11 13:22:15;;;;;;;7.35;2.08;;;19.00;66.10;;;;;;5021326;28;97164;-45
2022/02/11 13:24:47;;;;;;;12.38;3.38;;;18.90;66.10;;;;;;5005895;28;95976;-43
2022/02/11 13:27:20;;;;;;;8.18;2.53;;;19.00;66.40;;;;;;5018561;28;96494;-44
2022/02/11 13:30:04;;;;;;;6.55;2.13;;;19.00;66.20;;;;;;5022283;27;96144;-45
2022/02/11 13:32:35;;;;;;;11.98;2.72;;;19.00;65.90;;;;;;5020258;28;98609;-45
2022/02/11 13:35:08;;;;;;;8.05;2.08;;;18.90;66.40;;;;;;5025105;27;95576;-45
2022/02/11 13:37:54;;;;;;;11.20;1.88;;;19.00;66.40;;;;;;5025231;28;97239;-43
2022/02/11 13:40:29;;;;;;;9.95;2.40;;;18.90;66.50;;;;;;5026317;28;96065;-42
2022/02/11 13:43:08;;;;;;;10.30;2.65;;;18.90;66.70;;;;;;5026327;28;97698;-43
2022/02/11 13:45:55;;;;;;;10.00;2.50;;;18.90;66.50;;;;;;5022177;27;96450;-43
2022/02/11 13:48:31;;;;;;;8.45;2.17;;;18.80;66.50;;;;;;5027637;28;97025;-43
2022/02/11 13:51:12;;;;;;;9.20;2.28;;;18.70;66.60;;;;;;5026161;27;95693;-42
2022/02/11 13:53:53;;;;;;;7.53;2.37;;;18.70;67.70;;;;;;5029534;28;95578;-43
2022/02/11 13:56:38;;;;;;;10.45;2.75;;;18.60;67.30;;;;;;5010727;28;97211;-47
2022/02/11 13:59:11;;;;;;;7.53;2.38;;;18.60;67.40;;;;;;5029248;27;96129;-42
2022/02/11 14:01:44;;;;;;;12.25;2.78;;;18.60;67.00;;;;;;5022817;27;95992;-42
2022/02/11 14:04:22;;;;;;;10.38;2.45;;;18.50;67.10;;;;;;5026553;28;95880;-42
2022/02/11 14:06:53;;;;;;;9.43;2.40;;;18.40;67.70;;;;;;5028982;28;95629;-42
2022/02/11 14:09:39;;;;;;;10.75;2.30;;;18.30;68.40;;;;;;5028095;28;96115;-42
2022/02/11 14:12:21;;;;;;;7.32;1.92;;;18.20;68.50;;;;;;5028213;28;95710;-43
2022/02/11 14:15:05;;;;;;;10.48;2.30;;;18.30;68.90;;;;;;5028676;28;95883;-42
2022/02/11 14:17:35;;;;;;;5.30;1.95;;;18.30;68.70;;;;;;5021649;27;97840;-43
2022/02/11 14:20:07;;;;;;;10.07;2.28;;;18.30;68.40;;;;;;5026231;28;95869;-43
2022/02/11 14:22:39;;;;;;;6.90;2.03;;;18.10;68.90;;;;;;5027236;28;95668;-43
2022/02/11 14:25:10;;;;;;;8.23;2.13;;;17.80;69.80;;;;;;5028982;28;95549;-43
2022/02/11 14:27:41;;;;;;;5.13;1.67;;;17.70;70.00;;;;;;5028775;28;95758;-43
2022/02/11 14:30:13;;;;;;;5.53;1.70;;;17.80;71.20;;;;;;5022865;28;96901;-43
2022/02/11 14:32:44;;;;;;;7.82;2.17;;;18.00;70.80;;;;;;5022539;28;95914;-43
2022/02/11 14:35:15;;;;;;;9.32;2.17;;;18.20;70.10;;;;;;5024968;27;95323;-43
2022/02/11 14:37:46;;;;;;;12.88;3.03;;;18.30;61.60;;;;;;5024453;28;95864;-42
2022/02/11 14:40:16;;;;;;;4.22;1.70;;;18.20;69.80;;;;;;5022611;28;96122;-43
2022/02/11 14:42:48;;;;;;;10.20;2.20;;;18.30;69.50;;;;;;5024141;28;95703;-43
2022/02/11 14:45:19;;;;;;;10.98;2.65;;;18.30;69.60;;;;;;5020660;28;98420;-46
2022/02/11 14:47:50;;;;;;;12.68;2.25;;;18.30;69.60;;;;;;5027236;28;96274;-44
2022/02/11 14:50:22;;;;;;;5.90;2.30;;;18.30;69.50;;;;;;5024599;28;96309;-44
2022/02/11 14:52:53;;;;;;;10.18;2.35;;;18.30;69.90;;;;;;5026395;28;95629;-43
2022/02/11 14:55:25;;;;;;;12.33;2.27;;;18.30;69.80;;;;;;5025038;28;95740;-43
2022/02/11 14:57:58;;;;;;;8.70;2.42;;;18.30;69.30;;;;;;5023961;27;95729;-44
2022/02/11 15:00:29;;;;;;;12.27;2.17;;;18.40;69.80;;;;;;5011134;27;99092;-43
2022/02/11 15:02:59;;;;;;;6.82;1.85;;;18.40;69.70;;;;;;5023843;27;95761;-41
2022/02/11 15:05:29;;;;;;;9.02;2.35;;;18.40;69.80;;;;;;5027655;28;95270;-41
2022/02/11 15:07:59;;;;;;;6.20;1.75;;;18.40;69.80;;;;;;5024537;28;96043;-41
2022/02/11 15:10:31;;;;;;;8.25;2.00;;;18.40;69.80;;;;;;5021552;28;96126;-41
2022/02/11 15:13:08;;;;;;;13.52;2.38;;;18.40;69.70;;;;;;5019788;28;95861;-41
2022/02/11 15:15:41;;;;;;;7.28;2.85;;;18.40;69.30;;;;;;5012355;28;96152;-42
2022/02/11 15:18:13;;;;;;;14.15;3.15;;;18.40;69.80;;;;;;5017368;28;95212;-42
2022/02/11 15:20:45;;;;;;;7.35;2.35;;;18.40;69.80;;;;;;5019132;28;96677;-42
2022/02/11 15:23:17;;;;;;;9.15;2.58;;;18.50;69.80;;;;;;5014038;28;96775;-42
2022/02/11 15:25:48;;;;;;;;;;;18.40;69.60;;;;;;5027158;28;95884;-41
2022/02/11 15:28:19;;;;;;;8.18;1.67;;;18.40;69.80;;;;;;5025572;28;95662;-41
2022/02/11 15:30:51;;;;;;;8.82;2.22;;;18.30;70.20;;;;;;4998489;27;96618;-41
2022/02/11 15:33:21;;;;;;;;;;;18.40;70.30;;;;;;5022381;28;95758;-42
2022/02/11 15:35:53;;;;;;;4.53;1.97;;;18.40;70.20;;;;;;5034021;27;96575;-41
2022/02/11 15:38:24;;;;;;;10.82;3.15;;;18.40;70.30;;;;;;5028503;27;96064;-41
2022/02/11 15:40:55;;;;;;;5.80;2.20;;;18.40;70.60;;;;;;5024291;28;96716;-42
2022/02/11 15:43:27;;;;;;;7.75;2.30;;;18.30;71.00;;;;;;5008818;28;95823;-41
2022/02/11 15:46:00;;;;;;;9.65;2.20;;;18.20;71.40;;;;;;5024361;27;95924;-41
2022/02/11 15:48:34;;;;;;;12.05;2.58;;;18.20;71.30;;;;;;5030489;28;95579;-41
2022/02/11 15:51:06;;;;;;;12.02;2.80;;;18.20;71.70;;;;;;5030925;27;96772;-41
2022/02/11 15:53:36;;;;;;;10.52;2.67;;;18.10;71.90;;;;;;5028549;27;95740;-41
2022/02/11 15:56:08;;;;;;;9.02;2.22;;;18.20;72.30;;;;;;5032623;27;95268;-41
2022/02/11 15:58:38;;;;;;;11.07;2.13;;;18.20;72.00;;;;;;5030352;28;95357;-41
2022/02/11 16:01:08;;;;;;;8.65;2.58;;;18.10;72.20;;;;;;5021518;28;98539;-41
2022/02/11 16:03:38;;;;;;;7.45;2.38;;;18.20;72.50;;;;;;5030632;27;96056;-41
2022/02/11 16:06:08;;;;;;;5.73;2.10;;;18.20;72.40;;;;;;5029736;27;95795;-41
2022/02/11 16:08:38;;;;;;;12.27;2.80;;;18.20;72.50;;;;;;5025054;28;96107;-41
2022/02/11 16:11:08;;;;;;;16.05;3.78;;;18.20;72.50;;;;;;5029981;28;96431;-41
2022/02/11 16:13:38;;;;;;;9.75;2.28;;;18.10;73.10;;;;;;5030088;28;97929;-41
2022/02/11 16:16:08;;;;;;;9.45;2.95;;;18.10;73.20;;;;;;5021463;28;95661;-41
2022/02/11 16:18:39;;;;;;;7.25;2.40;;;18.00;73.20;;;;;;5029687;28;95641;-41
2022/02/11 16:21:12;;;;;;;8.27;2.13;;;18.00;73.60;;;;;;5029653;28;96165;-41
2022/02/11 16:23:42;;;;;;;8.38;2.20;;;18.10;73.50;;;;;;5029905;28;96096;-41
2022/02/11 16:26:13;;;;;;;12.00;2.00;;;18.10;73.30;;;;;;5028061;27;96528;-42
2022/02/11 16:28:44;;;;;;;8.68;2.00;;;18.00;74.60;;;;;;5033437;27;96045;-41
2022/02/11 16:31:26;;;;;;;10.98;2.88;;;18.00;74.30;;;;;;5018952;28;95267;-41
2022/02/11 16:33:58;;;;;;;8.88;1.98;;;18.10;74.30;;;;;;5027107;28;95865;-41
2022/02/11 16:36:32;;;;;;;13.77;2.90;;;18.10;74.40;;;;;;5030078;27;97709;-41
2022/02/11 16:39:02;;;;;;;9.15;2.38;;;18.10;74.60;;;;;;5025162;27;95379;-41
2022/02/11 16:41:33;;;;;;;6.77;2.30;;;18.00;74.80;;;;;;5028579;28;96196;-41
2022/02/11 16:44:05;;;;;;;12.55;2.28;;;17.90;75.10;;;;;;5028391;28;96388;-41
2022/02/11 16:46:36;;;;;;;8.27;2.28;;;17.90;75.40;;;;;;5024642;28;95401;-41
2022/02/11 16:49:13;;;;;;;5.32;2.58;;;18.00;75.60;;;;;;5029916;28;98105;-41
2022/02/11 16:51:48;;;;;;;11.18;2.92;;;17.90;75.30;;;;;;5028004;28;98035;-41
2022/02/11 16:54:19;;;;;;;9.55;2.15;;;17.90;75.70;;;;;;5030346;28;96134;-41
2022/02/11 16:56:50;;;;;;;9.98;2.50;;;17.90;75.70;;;;;;5021128;28;95378;-41